Time;durP1;ratioP1;P1;durP2;ratioP2;P2;SDS_P1;SDS_P2;PMS_P1;PMS_P2;Temp;Humidity;BMP_temperature;BMP_pressure;BME280_temperature;BME280_humidity;BME280_pressure;Samples;Min_cycle;Max_cycle;Signal;HPM_P1;HPM_P2
2021/01/30 00:01:00;;;;;;;22.0;15.5;;;;;;;4.4;81.5;100030.0;;;;
2021/01/30 00:03:00;;;;;;;22.0;15.5;;;;;;;4.5;81.8;100030.0;;;;
2021/01/30 00:05:00;;;;;;;22.0;15.5;;;;;;;4.6;82.3;100030.0;;;;
2021/01/30 00:07:00;;;;;;;22.0;15.5;;;;;;;4.5;81.7;100030.0;;;;
2021/01/30 00:09:00;;;;;;;20.6;15.3;;;;;;;4.6;82.0;100030.0;;;;
2021/01/30 00:11:00;;;;;;;20.6;15.3;;;;;;;4.4;82.0;100030.0;;;;
2021/01/30 00:13:00;;;;;;;20.6;15.3;;;;;;;4.2;82.0;100030.0;;;;
2021/01/30 00:15:00;;;;;;;20.6;15.3;;;;;;;4.0;81.6;100040.0;;;;
2021/01/30 00:17:02;;;;;;;20.6;15.3;;;;;;;4.1;81.7;100040.0;;;;
2021/01/30 00:19:00;;;;;;;20.6;15.3;;;;;;;4.2;81.5;100040.0;;;;
2021/01/30 00:21:00;;;;;;;20.6;15.3;;;;;;;4.1;81.7;100050.0;;;;
2021/01/30 00:23:00;;;;;;;20.6;15.3;;;;;;;3.6;80.6;100040.0;;;;
2021/01/30 00:33:01;;;;;;;10.8;9.7;;;;;;;3.5;81.9;100060.0;;;;
2021/01/30 00:35:02;;;;;;;10.8;9.7;;;;;;;3.6;81.3;100050.0;;;;
2021/01/30 00:37:07;;;;;;;10.8;9.7;;;;;;;3.5;80.7;100050.0;;;;
2021/01/30 00:39:00;;;;;;;10.8;9.7;;;;;;;3.2;79.4;100050.0;;;;
2021/01/30 00:41:00;;;;;;;10.8;9.7;;;;;;;3.4;80.9;100050.0;;;;
2021/01/30 00:45:00;;;;;;;10.8;9.7;;;;;;;3.2;80.9;100050.0;;;;
2021/01/30 00:47:00;;;;;;;10.8;9.7;;;;;;;3.3;80.9;100050.0;;;;
2021/01/30 00:49:00;;;;;;;8.5;7.2;;;;;;;3.2;80.2;100050.0;;;;
2021/01/30 00:53:00;;;;;;;8.5;7.2;;;;;;;3.1;81.6;100050.0;;;;
2021/01/30 00:55:00;;;;;;;8.5;7.2;;;;;;;3.2;80.8;100050.0;;;;
2021/01/30 00:57:00;;;;;;;8.5;7.2;;;;;;;3.3;81.0;100050.0;;;;
2021/01/30 00:59:00;;;;;;;8.5;7.2;;;;;;;3.1;80.4;100060.0;;;;
2021/01/30 01:05:00;;;;;;;8.5;7.2;;;;;;;3.0;81.1;100060.0;;;;
2021/01/30 01:09:00;;;;;;;8.9;8.0;;;;;;;3.1;81.5;100060.0;;;;
2021/01/30 01:11:00;;;;;;;8.9;8.0;;;;;;;3.0;80.8;100060.0;;;;
2021/01/30 01:17:00;;;;;;;8.9;8.0;;;;;;;3.1;81.0;100060.0;;;;
2021/01/30 01:19:00;;;;;;;8.9;8.0;;;;;;;3.3;81.2;100060.0;;;;
2021/01/30 01:21:00;;;;;;;8.9;8.0;;;;;;;3.2;81.2;100070.0;;;;
2021/01/30 01:23:00;;;;;;;8.9;8.0;;;;;;;3.3;80.3;100060.0;;;;
2021/01/30 01:27:00;;;;;;;8.9;8.0;;;;;;;3.2;81.3;100070.0;;;;
2021/01/30 01:31:00;;;;;;;9.3;8.4;;;;;;;3.1;81.2;100070.0;;;;
2021/01/30 01:35:00;;;;;;;9.3;8.4;;;;;;;2.9;80.6;100080.0;;;;
2021/01/30 01:37:02;;;;;;;9.3;8.4;;;;;;;2.8;79.7;100090.0;;;;
2021/01/30 01:39:00;;;;;;;9.3;8.4;;;;;;;3.0;81.0;100100.0;;;;
2021/01/30 01:43:02;;;;;;;9.3;8.4;;;;;;;2.9;79.7;100100.0;;;;
2021/01/30 01:47:01;;;;;;;9.3;8.4;;;;;;;3.0;81.2;100100.0;;;;
2021/01/30 01:51:04;;;;;;;12.9;11.5;;;;;;;2.9;81.1;100110.0;;;;
2021/01/30 01:53:09;;;;;;;12.9;11.5;;;;;;;3.0;80.7;100100.0;;;;
2021/01/30 01:55:08;;;;;;;12.9;11.5;;;;;;;2.8;79.8;100100.0;;;;
2021/01/30 01:57:11;;;;;;;12.9;11.5;;;;;;;3.2;81.6;100100.0;;;;
2021/01/30 01:59:04;;;;;;;12.9;11.5;;;;;;;2.8;80.1;100110.0;;;;
2021/01/30 02:01:00;;;;;;;12.9;11.5;;;;;;;2.9;81.5;100110.0;;;;
2021/01/30 02:03:01;;;;;;;12.9;11.5;;;;;;;2.7;80.6;100110.0;;;;
2021/01/30 02:11:00;;;;;;;17.0;15.4;;;;;;;2.5;80.4;100110.0;;;;
2021/01/30 02:13:04;;;;;;;17.0;15.4;;;;;;;2.7;81.1;100110.0;;;;
2021/01/30 02:15:00;;;;;;;17.0;15.4;;;;;;;2.8;81.4;100120.0;;;;
2021/01/30 02:17:11;;;;;;;17.0;15.4;;;;;;;2.9;81.3;100120.0;;;;
2021/01/30 02:19:12;;;;;;;17.0;15.4;;;;;;;2.8;80.3;100120.0;;;;
2021/01/30 02:21:20;;;;;;;17.0;15.4;;;;;;;2.9;81.3;100120.0;;;;
2021/01/30 02:23:20;;;;;;;17.0;15.4;;;;;;;2.6;79.4;100130.0;;;;
2021/01/30 02:25:18;;;;;;;17.0;15.4;;;;;;;2.7;81.8;100130.0;;;;
2021/01/30 02:27:20;;;;;;;19.0;17.2;;;;;;;2.5;80.0;100120.0;;;;
2021/01/30 02:31:12;;;;;;;19.0;17.2;;;;;;;2.6;81.7;100130.0;;;;
2021/01/30 02:33:17;;;;;;;19.0;17.2;;;;;;;2.5;81.1;100120.0;;;;
2021/01/30 02:37:02;;;;;;;19.0;17.2;;;;;;;2.8;81.1;100140.0;;;;
2021/01/30 02:39:10;;;;;;;19.0;17.2;;;;;;;2.7;80.5;100130.0;;;;
2021/01/30 02:41:08;;;;;;;19.0;17.2;;;;;;;2.6;80.9;100130.0;;;;
2021/01/30 02:43:05;;;;;;;19.0;17.2;;;;;;;2.4;80.2;100130.0;;;;
2021/01/30 02:45:04;;;;;;;19.0;17.2;;;;;;;2.3;81.0;100120.0;;;;
2021/01/30 02:49:06;;;;;;;25.2;22.7;;;;;;;2.4;81.1;100110.0;;;;
2021/01/30 02:51:04;;;;;;;25.2;22.7;;;;;;;2.3;80.0;100120.0;;;;
2021/01/30 02:53:04;;;;;;;25.2;22.7;;;;;;;2.1;81.3;100120.0;;;;
2021/01/30 02:59:05;;;;;;;25.2;22.7;;;;;;;1.9;80.6;100120.0;;;;
2021/01/30 03:03:00;;;;;;;25.2;22.7;;;;;;;2.1;82.4;100130.0;;;;
2021/01/30 03:05:01;;;;;;;25.2;22.7;;;;;;;2.3;81.8;100130.0;;;;
2021/01/30 03:07:20;;;;;;;27.6;24.7;;;;;;;1.9;80.7;100130.0;;;;
2021/01/30 03:09:07;;;;;;;27.6;24.7;;;;;;;1.6;81.1;100130.0;;;;
2021/01/30 03:11:06;;;;;;;27.6;24.7;;;;;;;1.5;82.1;100130.0;;;;
2021/01/30 03:13:08;;;;;;;27.6;24.7;;;;;;;1.6;81.6;100130.0;;;;
2021/01/30 03:17:01;;;;;;;27.6;24.7;;;;;;;1.5;81.5;100130.0;;;;
2021/01/30 03:19:07;;;;;;;27.6;24.7;;;;;;;1.8;82.3;100140.0;;;;
2021/01/30 03:23:02;;;;;;;27.6;24.7;;;;;;;1.6;81.8;100140.0;;;;
2021/01/30 03:25:00;;;;;;;27.6;24.7;;;;;;;1.8;81.6;100140.0;;;;
2021/01/30 03:27:00;;;;;;;26.8;24.1;;;;;;;1.5;80.8;100140.0;;;;
2021/01/30 03:29:00;;;;;;;26.8;24.1;;;;;;;1.3;81.1;100150.0;;;;
2021/01/30 03:31:00;;;;;;;26.8;24.1;;;;;;;1.0;81.3;100150.0;;;;
2021/01/30 03:33:01;;;;;;;26.8;24.1;;;;;;;0.8;81.0;100140.0;;;;
2021/01/30 03:35:01;;;;;;;26.8;24.1;;;;;;;0.9;81.6;100140.0;;;;
2021/01/30 03:39:00;;;;;;;26.8;24.1;;;;;;;1.0;81.1;100140.0;;;;
2021/01/30 03:41:00;;;;;;;26.8;24.1;;;;;;;0.9;81.8;100140.0;;;;
2021/01/30 03:43:00;;;;;;;26.8;24.1;;;;;;;0.7;81.4;100140.0;;;;
2021/01/30 03:47:00;;;;;;;21.5;19.5;;;;;;;0.6;81.3;100150.0;;;;
2021/01/30 03:53:01;;;;;;;21.5;19.5;;;;;;;0.5;80.9;100160.0;;;;
2021/01/30 03:57:00;;;;;;;21.5;19.5;;;;;;;0.8;81.5;100150.0;;;;
2021/01/30 03:59:00;;;;;;;21.5;19.5;;;;;;;0.7;80.6;100140.0;;;;
2021/01/30 04:01:00;;;;;;;21.5;19.5;;;;;;;0.8;80.8;100150.0;;;;
2021/01/30 04:03:00;;;;;;;21.5;19.5;;;;;;;0.6;81.5;100140.0;;;;
2021/01/30 04:04:14;;;;;;;21.5;19.5;;;;;;;0.6;81.5;100140.0;;;;
2021/01/30 04:07:00;;;;;;;22.1;19.9;;;;;;;0.5;81.0;100130.0;;;;
2021/01/30 04:09:00;;;;;;;22.1;19.9;;;;;;;0.4;81.4;100140.0;;;;
2021/01/30 04:11:00;;;;;;;22.1;19.9;;;;;;;0.3;80.2;100150.0;;;;
2021/01/30 04:15:00;;;;;;;22.1;19.9;;;;;;;0.4;80.8;100150.0;;;;
2021/01/30 04:19:00;;;;;;;22.1;19.9;;;;;;;0.5;81.7;100150.0;;;;
2021/01/30 04:21:00;;;;;;;22.1;19.9;;;;;;;0.4;81.3;100150.0;;;;
2021/01/30 04:23:00;;;;;;;22.1;19.9;;;;;;;0.6;80.7;100150.0;;;;
2021/01/30 04:25:00;;;;;;;22.1;19.9;;;;;;;0.4;80.5;100150.0;;;;
2021/01/30 04:29:00;;;;;;;21.3;19.2;;;;;;;0.3;80.8;100150.0;;;;
2021/01/30 04:31:00;;;;;;;21.3;19.2;;;;;;;0.2;80.4;100140.0;;;;
2021/01/30 04:35:00;;;;;;;21.3;19.2;;;;;;;0.3;80.3;100130.0;;;;
2021/01/30 04:37:00;;;;;;;21.3;19.2;;;;;;;0.2;79.9;100140.0;;;;
2021/01/30 04:39:00;;;;;;;21.3;19.2;;;;;;;0.1;80.4;100130.0;;;;
2021/01/30 04:41:13;;;;;;;21.3;19.2;;;;;;;0.3;81.0;100130.0;;;;
2021/01/30 04:45:06;;;;;;;21.3;19.2;;;;;;;0.2;80.0;100130.0;;;;
2021/01/30 04:47:15;;;;;;;19.7;17.8;;;;;;;0.4;80.1;100130.0;;;;
2021/01/30 04:49:08;;;;;;;19.7;17.8;;;;;;;0.2;80.2;100130.0;;;;
2021/01/30 04:51:06;;;;;;;19.7;17.8;;;;;;;0.1;80.2;100130.0;;;;
2021/01/30 04:55:14;;;;;;;19.7;17.8;;;;;;;0.3;79.8;100140.0;;;;
2021/01/30 04:57:11;;;;;;;19.7;17.8;;;;;;;0.4;79.8;100140.0;;;;
2021/01/30 04:59:09;;;;;;;19.7;17.8;;;;;;;0.2;80.2;100140.0;;;;
2021/01/30 05:01:11;;;;;;;19.7;17.8;;;;;;;0.1;80.6;100140.0;;;;
2021/01/30 05:03:13;;;;;;;19.7;17.8;;;;;;;0.3;80.9;100140.0;;;;
2021/01/30 05:05:01;;;;;;;19.7;17.8;;;;;;;0.4;80.7;100140.0;;;;
2021/01/30 05:07:07;;;;;;;20.0;18.0;;;;;;;0.3;80.8;100130.0;;;;
2021/01/30 05:09:05;;;;;;;20.0;18.0;;;;;;;0.1;80.6;100130.0;;;;
2021/01/30 05:11:04;;;;;;;20.0;18.0;;;;;;;0.4;80.6;100130.0;;;;
2021/01/30 05:15:11;;;;;;;20.0;18.0;;;;;;;0.3;80.1;100120.0;;;;
2021/01/30 05:17:07;;;;;;;20.0;18.0;;;;;;;0.2;80.3;100120.0;;;;
2021/01/30 05:25:00;;;;;;;20.0;18.0;;;;;;;-0.2;80.1;100130.0;;;;
2021/01/30 05:27:20;;;;;;;20.1;18.2;;;;;;;0.0;81.1;100120.0;;;;
2021/01/30 05:29:08;;;;;;;20.1;18.2;;;;;;;0.2;81.2;100130.0;;;;
2021/01/30 05:33:12;;;;;;;20.1;18.2;;;;;;;0.0;79.7;100120.0;;;;
2021/01/30 05:35:05;;;;;;;20.1;18.2;;;;;;;0.2;81.0;100120.0;;;;
2021/01/30 05:37:03;;;;;;;20.1;18.2;;;;;;;0.3;80.3;100120.0;;;;
2021/01/30 05:39:12;;;;;;;20.1;18.2;;;;;;;0.4;79.4;100120.0;;;;
2021/01/30 05:41:06;;;;;;;20.1;18.2;;;;;;;0.2;79.3;100120.0;;;;
2021/01/30 05:43:10;;;;;;;20.1;18.2;;;;;;;0.4;79.7;100120.0;;;;
2021/01/30 05:45:11;;;;;;;20.1;18.2;;;;;;;0.5;79.9;100120.0;;;;
2021/01/30 05:47:01;;;;;;;19.9;18.0;;;;;;;0.4;79.2;100120.0;;;;
2021/01/30 05:51:08;;;;;;;19.9;18.0;;;;;;;0.6;79.7;100120.0;;;;
2021/01/30 05:53:01;;;;;;;19.9;18.0;;;;;;;0.5;79.1;100110.0;;;;
2021/01/30 05:55:01;;;;;;;19.9;18.0;;;;;;;0.2;79.6;100110.0;;;;
2021/01/30 05:57:00;;;;;;;19.9;18.0;;;;;;;0.1;79.3;100110.0;;;;
2021/01/30 05:59:00;;;;;;;19.9;18.0;;;;;;;0.0;79.2;100110.0;;;;
2021/01/30 06:01:20;;;;;;;19.9;18.0;;;;;;;0.1;79.9;100110.0;;;;
2021/01/30 06:05:17;;;;;;;19.9;18.0;;;;;;;0.0;79.1;100110.0;;;;
2021/01/30 06:07:00;;;;;;;18.9;17.2;;;;;;;-0.1;78.9;100100.0;;;;
2021/01/30 06:09:04;;;;;;;18.9;17.2;;;;;;;-0.0;79.2;100110.0;;;;
2021/01/30 06:13:09;;;;;;;18.9;17.2;;;;;;;-0.1;79.8;100110.0;;;;
2021/01/30 06:15:09;;;;;;;18.9;17.2;;;;;;;0.0;79.4;100110.0;;;;
2021/01/30 06:17:01;;;;;;;18.9;17.2;;;;;;;0.1;79.0;100110.0;;;;
2021/01/30 06:27:06;;;;;;;18.6;16.9;;;;;;;0.2;79.0;100120.0;;;;
2021/01/30 06:29:04;;;;;;;18.6;16.9;;;;;;;0.3;78.9;100130.0;;;;
2021/01/30 06:31:09;;;;;;;18.6;16.9;;;;;;;0.2;79.1;100130.0;;;;
2021/01/30 06:35:13;;;;;;;18.6;16.9;;;;;;;0.3;78.5;100130.0;;;;
2021/01/30 06:39:08;;;;;;;18.6;16.9;;;;;;;0.1;78.5;100130.0;;;;
2021/01/30 06:43:11;;;;;;;18.6;16.9;;;;;;;0.2;78.2;100130.0;;;;
2021/01/30 06:47:05;;;;;;;16.0;14.7;;;;;;;0.1;78.5;100130.0;;;;
2021/01/30 06:49:15;;;;;;;16.0;14.7;;;;;;;0.0;78.4;100130.0;;;;
2021/01/30 06:51:00;;;;;;;16.0;14.7;;;;;;;0.3;80.1;100130.0;;;;
2021/01/30 06:53:12;;;;;;;16.0;14.7;;;;;;;0.2;78.0;100130.0;;;;
2021/01/30 07:01:10;;;;;;;16.0;14.7;;;;;;;0.1;78.0;100130.0;;;;
2021/01/30 07:05:14;;;;;;;16.0;14.7;;;;;;;0.2;78.4;100140.0;;;;
2021/01/30 07:07:08;;;;;;;14.8;13.5;;;;;;;0.3;78.1;100140.0;;;;
2021/01/30 07:09:08;;;;;;;14.8;13.5;;;;;;;0.1;79.2;100140.0;;;;
2021/01/30 07:13:17;;;;;;;14.8;13.5;;;;;;;0.2;78.3;100130.0;;;;
2021/01/30 07:15:07;;;;;;;14.8;13.5;;;;;;;0.1;77.9;100120.0;;;;
2021/01/30 07:23:06;;;;;;;14.8;13.5;;;;;;;0.2;77.8;100130.0;;;;
2021/01/30 07:25:06;;;;;;;14.8;13.5;;;;;;;0.1;77.7;100120.0;;;;
2021/01/30 07:33:06;;;;;;;14.4;13.2;;;;;;;0.2;78.1;100130.0;;;;
2021/01/30 07:35:05;;;;;;;14.4;13.2;;;;;;;0.0;77.2;100130.0;;;;
2021/01/30 07:39:11;;;;;;;14.4;13.2;;;;;;;-0.2;78.0;100120.0;;;;
2021/01/30 07:41:05;;;;;;;14.4;13.2;;;;;;;-0.1;77.9;100120.0;;;;
2021/01/30 07:43:06;;;;;;;14.4;13.2;;;;;;;-0.0;78.3;100130.0;;;;
2021/01/30 07:45:07;;;;;;;14.4;13.2;;;;;;;0.1;78.8;100120.0;;;;
2021/01/30 07:47:07;;;;;;;15.1;13.8;;;;;;;-0.2;78.4;100110.0;;;;
2021/01/30 07:49:06;;;;;;;15.1;13.8;;;;;;;-0.3;78.4;100120.0;;;;
2021/01/30 07:53:05;;;;;;;15.1;13.8;;;;;;;-0.1;78.7;100120.0;;;;
2021/01/30 07:55:02;;;;;;;15.1;13.8;;;;;;;0.0;79.2;100120.0;;;;
2021/01/30 07:57:16;;;;;;;15.1;13.8;;;;;;;-0.1;78.1;100120.0;;;;
2021/01/30 08:03:16;;;;;;;15.1;13.8;;;;;;;0.0;78.7;100120.0;;;;
2021/01/30 08:05:10;;;;;;;15.1;13.8;;;;;;;0.1;78.5;100120.0;;;;
2021/01/30 08:07:11;;;;;;;15.3;13.8;;;;;;;0.2;78.3;100130.0;;;;
2021/01/30 08:11:08;;;;;;;15.3;13.8;;;;;;;0.1;78.0;100120.0;;;;
2021/01/30 08:13:16;;;;;;;15.3;13.8;;;;;;;-0.0;77.4;100110.0;;;;
2021/01/30 08:15:05;;;;;;;15.3;13.8;;;;;;;-0.2;77.0;100120.0;;;;
2021/01/30 08:17:08;;;;;;;15.3;13.8;;;;;;;-0.3;76.8;100120.0;;;;
2021/01/30 08:19:05;;;;;;;15.3;13.8;;;;;;;-0.2;78.1;100130.0;;;;
2021/01/30 08:21:05;;;;;;;15.3;13.8;;;;;;;-0.3;77.1;100110.0;;;;
2021/01/30 08:23:06;;;;;;;15.3;13.8;;;;;;;-0.4;76.4;100110.0;;;;
2021/01/30 08:25:04;;;;;;;15.3;13.8;;;;;;;-0.3;76.7;100120.0;;;;
2021/01/30 08:29:10;;;;;;;11.9;11.0;;;;;;;-0.2;77.2;100100.0;;;;
2021/01/30 08:41:07;;;;;;;11.9;11.0;;;;;;;-0.3;76.3;100100.0;;;;
2021/01/30 08:43:02;;;;;;;11.9;11.0;;;;;;;-0.2;76.8;100110.0;;;;
2021/01/30 08:45:03;;;;;;;11.9;11.0;;;;;;;-0.3;76.9;100110.0;;;;
2021/01/30 08:47:12;;;;;;;13.8;12.6;;;;;;;-0.2;77.4;100110.0;;;;
2021/01/30 08:49:04;;;;;;;13.8;12.6;;;;;;;-0.3;76.7;100120.0;;;;
2021/01/30 08:51:00;;;;;;;13.8;12.6;;;;;;;-0.1;77.1;100110.0;;;;
2021/01/30 08:57:01;;;;;;;13.8;12.6;;;;;;;-0.0;77.0;100100.0;;;;
2021/01/30 08:59:00;;;;;;;13.8;12.6;;;;;;;0.1;77.0;100100.0;;;;
2021/01/30 09:01:02;;;;;;;13.8;12.6;;;;;;;-0.1;76.0;100100.0;;;;
2021/01/30 09:05:03;;;;;;;14.8;13.5;;;;;;;0.0;75.7;100100.0;;;;
2021/01/30 09:09:05;;;;;;;14.8;13.5;;;;;;;-0.1;76.3;100100.0;;;;
2021/01/30 09:11:18;;;;;;;14.8;13.5;;;;;;;0.0;76.9;100100.0;;;;
2021/01/30 09:13:04;;;;;;;14.8;13.5;;;;;;;0.1;76.7;100100.0;;;;
2021/01/30 09:17:08;;;;;;;14.8;13.5;;;;;;;0.2;76.7;100100.0;;;;
2021/01/30 09:19:01;;;;;;;14.8;13.5;;;;;;;0.1;76.6;100100.0;;;;
2021/01/30 09:23:14;;;;;;;14.8;13.5;;;;;;;0.2;76.6;100090.0;;;;
2021/01/30 09:25:14;;;;;;;14.0;12.6;;;;;;;0.4;76.1;100090.0;;;;
2021/01/30 09:29:03;;;;;;;14.0;12.6;;;;;;;0.3;76.0;100090.0;;;;
2021/01/30 09:31:03;;;;;;;14.0;12.6;;;;;;;0.2;74.8;100090.0;;;;
2021/01/30 09:33:07;;;;;;;14.0;12.6;;;;;;;0.1;75.9;100090.0;;;;
2021/01/30 09:35:06;;;;;;;14.0;12.6;;;;;;;0.3;76.1;100090.0;;;;
2021/01/30 09:37:00;;;;;;;14.0;12.6;;;;;;;0.2;75.4;100080.0;;;;
2021/01/30 09:41:13;;;;;;;14.0;12.6;;;;;;;0.1;75.2;100090.0;;;;
2021/01/30 09:43:02;;;;;;;14.0;12.6;;;;;;;0.2;76.4;100090.0;;;;
2021/01/30 09:45:03;;;;;;;13.5;12.3;;;;;;;0.4;76.1;100090.0;;;;
2021/01/30 09:47:04;;;;;;;13.5;12.3;;;;;;;0.3;75.8;100090.0;;;;
2021/01/30 09:49:02;;;;;;;13.5;12.3;;;;;;;0.5;75.6;100090.0;;;;
2021/01/30 09:51:00;;;;;;;13.5;12.3;;;;;;;0.4;75.1;100090.0;;;;
2021/01/30 09:55:07;;;;;;;13.5;12.3;;;;;;;0.3;76.0;100090.0;;;;
2021/01/30 10:03:04;;;;;;;13.5;12.3;;;;;;;0.5;76.1;100090.0;;;;
2021/01/30 10:05:00;;;;;;;12.1;11.1;;;;;;;0.4;75.6;100080.0;;;;
2021/01/30 10:07:06;;;;;;;12.1;11.1;;;;;;;0.3;75.0;100090.0;;;;
2021/01/30 10:09:10;;;;;;;12.1;11.1;;;;;;;0.2;74.5;100090.0;;;;
2021/01/30 10:11:02;;;;;;;12.1;11.1;;;;;;;0.0;73.9;100080.0;;;;
2021/01/30 10:13:01;;;;;;;12.1;11.1;;;;;;;0.1;75.0;100080.0;;;;
2021/01/30 10:17:03;;;;;;;12.1;11.1;;;;;;;0.2;74.4;100070.0;;;;
2021/01/30 10:19:06;;;;;;;12.1;11.1;;;;;;;0.1;74.7;100080.0;;;;
2021/01/30 10:21:01;;;;;;;12.1;11.1;;;;;;;0.2;74.5;100080.0;;;;
2021/01/30 10:23:00;;;;;;;12.1;11.1;;;;;;;0.3;74.2;100080.0;;;;
2021/01/30 10:25:04;;;;;;;11.3;10.4;;;;;;;0.4;73.7;100080.0;;;;
2021/01/30 10:27:14;;;;;;;11.3;10.4;;;;;;;0.5;73.6;100080.0;;;;
2021/01/30 10:29:04;;;;;;;11.3;10.4;;;;;;;0.6;74.3;100080.0;;;;
2021/01/30 10:33:04;;;;;;;11.3;10.4;;;;;;;0.4;73.5;100070.0;;;;
2021/01/30 10:35:03;;;;;;;11.3;10.4;;;;;;;0.7;73.8;100080.0;;;;
2021/01/30 10:37:03;;;;;;;11.3;10.4;;;;;;;0.5;73.9;100080.0;;;;
2021/01/30 10:39:02;;;;;;;11.3;10.4;;;;;;;0.4;74.0;100090.0;;;;
2021/01/30 10:41:03;;;;;;;11.3;10.4;;;;;;;0.5;74.2;100080.0;;;;
2021/01/30 10:43:04;;;;;;;11.3;10.4;;;;;;;0.4;73.2;100080.0;;;;
2021/01/30 10:49:04;;;;;;;10.0;9.3;;;;;;;0.5;74.1;100070.0;;;;
2021/01/30 10:51:03;;;;;;;10.0;9.3;;;;;;;0.7;74.8;100070.0;;;;
2021/01/30 10:53:20;;;;;;;10.0;9.3;;;;;;;0.8;74.6;100070.0;;;;
2021/01/30 10:57:05;;;;;;;10.0;9.3;;;;;;;0.7;72.5;100070.0;;;;
2021/01/30 11:01:03;;;;;;;10.0;9.3;;;;;;;0.6;72.6;100060.0;;;;
2021/01/30 11:03:18;;;;;;;10.0;9.3;;;;;;;0.5;72.5;100050.0;;;;
2021/01/30 11:11:02;;;;;;;10.1;9.2;;;;;;;0.6;74.0;100040.0;;;;
2021/01/30 11:13:15;;;;;;;10.1;9.2;;;;;;;0.8;74.4;100040.0;;;;
2021/01/30 11:17:02;;;;;;;10.1;9.2;;;;;;;1.0;73.5;100030.0;;;;
2021/01/30 11:19:20;;;;;;;10.1;9.2;;;;;;;0.9;73.3;100030.0;;;;
2021/01/30 11:21:01;;;;;;;10.1;9.2;;;;;;;0.7;72.4;100040.0;;;;
2021/01/30 11:25:09;;;;;;;8.6;7.9;;;;;;;0.8;73.5;100030.0;;;;
2021/01/30 11:27:00;;;;;;;8.6;7.9;;;;;;;0.9;74.0;100030.0;;;;
2021/01/30 11:29:03;;;;;;;8.6;7.9;;;;;;;1.0;73.1;100030.0;;;;
2021/01/30 11:31:00;;;;;;;8.6;7.9;;;;;;;0.9;72.9;100020.0;;;;
2021/01/30 11:35:00;;;;;;;8.6;7.9;;;;;;;1.0;72.9;100020.0;;;;
2021/01/30 11:37:00;;;;;;;8.6;7.9;;;;;;;0.9;72.6;100020.0;;;;
2021/01/30 11:41:00;;;;;;;8.6;7.9;;;;;;;1.0;74.2;100020.0;;;;
2021/01/30 11:43:00;;;;;;;8.6;7.9;;;;;;;1.1;74.0;100020.0;;;;
2021/01/30 11:45:00;;;;;;;9.0;8.3;;;;;;;1.2;73.6;100020.0;;;;
2021/01/30 11:47:00;;;;;;;9.0;8.3;;;;;;;1.1;73.1;100010.0;;;;
2021/01/30 11:49:00;;;;;;;9.0;8.3;;;;;;;1.2;73.4;100010.0;;;;
2021/01/30 11:51:00;;;;;;;9.0;8.3;;;;;;;1.0;72.9;100000.0;;;;
2021/01/30 11:53:08;;;;;;;9.0;8.3;;;;;;;0.9;72.7;100000.0;;;;
2021/01/30 11:55:02;;;;;;;9.0;8.3;;;;;;;1.1;72.8;99990.0;;;;
2021/01/30 11:57:00;;;;;;;9.0;8.3;;;;;;;0.9;73.0;100000.0;;;;
2021/01/30 11:59:00;;;;;;;9.0;8.3;;;;;;;1.1;73.7;99980.0;;;;
2021/01/30 12:01:00;;;;;;;9.0;8.3;;;;;;;1.0;71.8;99990.0;;;;
2021/01/30 12:03:00;;;;;;;9.0;8.3;;;;;;;1.1;73.2;99980.0;;;;
2021/01/30 12:11:01;;;;;;;10.0;9.2;;;;;;;1.2;72.4;99970.0;;;;
2021/01/30 12:13:00;;;;;;;10.0;9.2;;;;;;;1.3;72.8;99970.0;;;;
2021/01/30 12:15:00;;;;;;;10.0;9.2;;;;;;;1.4;72.3;99970.0;;;;
2021/01/30 12:17:00;;;;;;;10.0;9.2;;;;;;;1.6;72.7;99980.0;;;;
2021/01/30 12:19:00;;;;;;;10.0;9.2;;;;;;;1.7;72.2;99970.0;;;;
2021/01/30 12:21:01;;;;;;;10.0;9.2;;;;;;;1.6;72.7;99960.0;;;;
2021/01/30 12:23:01;;;;;;;10.0;9.2;;;;;;;1.4;72.4;99970.0;;;;
2021/01/30 12:27:00;;;;;;;9.8;9.1;;;;;;;1.5;71.7;99970.0;;;;
2021/01/30 12:31:01;;;;;;;9.8;9.1;;;;;;;1.3;71.1;99960.0;;;;
2021/01/30 12:33:00;;;;;;;9.8;9.1;;;;;;;1.5;71.6;99960.0;;;;
2021/01/30 12:37:00;;;;;;;9.8;9.1;;;;;;;1.4;71.9;99950.0;;;;
2021/01/30 12:39:00;;;;;;;9.8;9.1;;;;;;;1.5;71.5;99950.0;;;;
2021/01/30 12:41:01;;;;;;;9.8;9.1;;;;;;;1.6;72.1;99950.0;;;;
2021/01/30 12:45:00;;;;;;;8.4;7.8;;;;;;;1.8;71.9;99940.0;;;;
2021/01/30 12:47:00;;;;;;;8.4;7.8;;;;;;;1.5;71.3;99930.0;;;;
2021/01/30 12:59:00;;;;;;;8.4;7.8;;;;;;;1.7;72.3;99930.0;;;;
2021/01/30 13:03:00;;;;;;;8.4;7.8;;;;;;;1.5;72.2;99940.0;;;;
2021/01/30 13:05:00;;;;;;;8.4;7.8;;;;;;;1.6;73.2;99950.0;;;;
2021/01/30 13:07:00;;;;;;;8.4;7.8;;;;;;;1.8;71.8;99940.0;;;;
2021/01/30 13:09:00;;;;;;;8.4;7.8;;;;;;;1.6;71.8;99940.0;;;;
2021/01/30 13:11:00;;;;;;;8.4;7.8;;;;;;;1.5;71.4;99930.0;;;;
2021/01/30 13:13:00;;;;;;;8.4;7.8;;;;;;;1.6;72.4;99940.0;;;;
2021/01/30 13:15:00;;;;;;;8.4;7.8;;;;;;;1.7;71.4;99940.0;;;;
2021/01/30 13:19:00;;;;;;;8.4;7.8;;;;;;;1.6;71.8;99930.0;;;;
2021/01/30 13:21:03;;;;;;;8.4;7.8;;;;;;;1.8;72.2;99920.0;;;;
2021/01/30 13:23:00;;;;;;;8.4;7.8;;;;;;;1.9;71.8;99920.0;;;;
2021/01/30 13:25:00;;;;;;;8.9;8.3;;;;;;;1.7;71.7;99910.0;;;;
2021/01/30 13:31:00;;;;;;;8.9;8.3;;;;;;;1.6;71.5;99910.0;;;;
2021/01/30 13:33:00;;;;;;;8.9;8.3;;;;;;;1.7;72.0;99910.0;;;;
2021/01/30 13:35:00;;;;;;;8.9;8.3;;;;;;;1.8;72.0;99910.0;;;;
2021/01/30 13:37:00;;;;;;;8.9;8.3;;;;;;;1.6;70.5;99910.0;;;;
2021/01/30 13:39:00;;;;;;;8.9;8.3;;;;;;;1.7;72.0;99910.0;;;;
2021/01/30 13:41:00;;;;;;;8.9;8.3;;;;;;;1.6;71.5;99900.0;;;;
2021/01/30 13:45:00;;;;;;;9.4;8.6;;;;;;;1.7;70.7;99920.0;;;;
2021/01/30 13:47:00;;;;;;;9.4;8.6;;;;;;;1.8;72.1;99920.0;;;;
2021/01/30 13:49:00;;;;;;;9.4;8.6;;;;;;;1.7;71.0;99910.0;;;;
2021/01/30 13:51:00;;;;;;;9.4;8.6;;;;;;;1.9;71.5;99900.0;;;;
2021/01/30 13:53:02;;;;;;;9.4;8.6;;;;;;;1.8;72.0;99910.0;;;;
2021/01/30 13:55:00;;;;;;;9.4;8.6;;;;;;;1.9;72.9;99910.0;;;;
2021/01/30 13:57:00;;;;;;;9.4;8.6;;;;;;;1.8;70.9;99900.0;;;;
2021/01/30 13:59:00;;;;;;;9.4;8.6;;;;;;;1.9;72.2;99910.0;;;;
2021/01/30 14:01:00;;;;;;;9.4;8.6;;;;;;;2.0;71.2;99910.0;;;;
2021/01/30 14:03:00;;;;;;;9.4;8.6;;;;;;;1.8;70.6;99920.0;;;;
2021/01/30 14:05:00;;;;;;;9.2;8.5;;;;;;;1.9;72.2;99930.0;;;;
2021/01/30 14:07:00;;;;;;;9.2;8.5;;;;;;;2.0;71.7;99920.0;;;;
2021/01/30 14:17:00;;;;;;;9.2;8.5;;;;;;;1.9;71.3;99920.0;;;;
2021/01/30 14:21:00;;;;;;;9.2;8.5;;;;;;;1.8;71.9;99920.0;;;;
2021/01/30 14:25:00;;;;;;;10.4;9.5;;;;;;;2.0;72.9;99910.0;;;;
2021/01/30 14:27:00;;;;;;;10.4;9.5;;;;;;;1.9;71.1;99910.0;;;;
2021/01/30 14:29:00;;;;;;;10.4;9.5;;;;;;;2.0;72.2;99900.0;;;;
2021/01/30 14:31:00;;;;;;;10.4;9.5;;;;;;;1.7;71.9;99900.0;;;;
2021/01/30 14:33:01;;;;;;;10.4;9.5;;;;;;;1.8;71.5;99890.0;;;;
2021/01/30 14:35:00;;;;;;;10.4;9.5;;;;;;;1.7;71.5;99900.0;;;;
2021/01/30 14:37:00;;;;;;;10.4;9.5;;;;;;;1.8;71.1;99890.0;;;;
2021/01/30 14:49:00;;;;;;;9.8;9.0;;;;;;;1.6;71.2;99900.0;;;;
2021/01/30 14:55:00;;;;;;;9.8;9.0;;;;;;;1.8;71.2;99890.0;;;;
2021/01/30 14:57:00;;;;;;;9.8;9.0;;;;;;;1.7;71.2;99890.0;;;;
2021/01/30 14:59:00;;;;;;;9.8;9.0;;;;;;;1.8;71.4;99900.0;;;;
2021/01/30 15:03:00;;;;;;;9.8;9.0;;;;;;;1.7;71.1;99900.0;;;;
2021/01/30 15:05:00;;;;;;;10.4;9.6;;;;;;;1.8;70.9;99890.0;;;;
2021/01/30 15:07:00;;;;;;;10.4;9.6;;;;;;;1.7;72.0;99900.0;;;;
2021/01/30 15:09:00;;;;;;;10.4;9.6;;;;;;;1.8;72.4;99900.0;;;;
2021/01/30 15:11:00;;;;;;;10.4;9.6;;;;;;;1.7;71.3;99900.0;;;;
2021/01/30 15:13:01;;;;;;;10.4;9.6;;;;;;;1.5;70.8;99910.0;;;;
2021/01/30 15:21:02;;;;;;;10.4;9.6;;;;;;;1.6;71.9;99910.0;;;;
2021/01/30 15:23:00;;;;;;;10.4;9.6;;;;;;;1.7;72.1;99910.0;;;;
2021/01/30 15:25:01;;;;;;;10.7;9.7;;;;;;;1.6;71.9;99910.0;;;;
2021/01/30 15:27:00;;;;;;;10.7;9.7;;;;;;;1.3;71.9;99920.0;;;;
2021/01/30 15:29:00;;;;;;;10.7;9.7;;;;;;;1.4;72.0;99920.0;;;;
2021/01/30 15:33:02;;;;;;;10.7;9.7;;;;;;;1.6;72.0;99920.0;;;;
2021/01/30 15:37:00;;;;;;;10.7;9.7;;;;;;;1.5;71.9;99920.0;;;;
2021/01/30 15:39:00;;;;;;;10.7;9.7;;;;;;;1.6;71.7;99930.0;;;;
2021/01/30 15:41:00;;;;;;;10.7;9.7;;;;;;;1.5;72.5;99930.0;;;;
2021/01/30 15:45:00;;;;;;;11.4;10.5;;;;;;;1.4;72.2;99940.0;;;;
2021/01/30 15:47:00;;;;;;;11.4;10.5;;;;;;;1.5;72.2;99940.0;;;;
2021/01/30 15:51:00;;;;;;;11.4;10.5;;;;;;;1.3;72.5;99950.0;;;;
2021/01/30 15:53:00;;;;;;;11.4;10.5;;;;;;;1.5;72.4;99950.0;;;;
2021/01/30 15:55:00;;;;;;;11.4;10.5;;;;;;;1.4;72.4;99940.0;;;;
2021/01/30 15:57:00;;;;;;;11.4;10.5;;;;;;;1.3;72.6;99950.0;;;;
2021/01/30 15:59:00;;;;;;;11.4;10.5;;;;;;;1.4;72.2;99940.0;;;;
2021/01/30 16:01:00;;;;;;;11.4;10.5;;;;;;;1.3;71.7;99950.0;;;;
2021/01/30 16:03:00;;;;;;;11.0;10.1;;;;;;;1.4;72.2;99950.0;;;;
2021/01/30 16:07:00;;;;;;;11.0;10.1;;;;;;;1.3;72.1;99950.0;;;;
2021/01/30 16:09:00;;;;;;;11.0;10.1;;;;;;;1.4;72.2;99950.0;;;;
2021/01/30 16:11:00;;;;;;;11.0;10.1;;;;;;;1.3;72.3;99950.0;;;;
2021/01/30 16:13:00;;;;;;;11.0;10.1;;;;;;;1.2;72.6;99950.0;;;;
2021/01/30 16:15:00;;;;;;;11.0;10.1;;;;;;;1.5;72.6;99950.0;;;;
2021/01/30 16:17:00;;;;;;;11.0;10.1;;;;;;;1.3;72.5;99960.0;;;;
2021/01/30 16:19:00;;;;;;;11.0;10.1;;;;;;;1.2;72.6;99960.0;;;;
2021/01/30 16:25:00;;;;;;;13.4;12.2;;;;;;;1.3;73.3;99950.0;;;;
2021/01/30 16:27:03;;;;;;;13.4;12.2;;;;;;;1.2;72.8;99950.0;;;;
2021/01/30 16:29:00;;;;;;;13.4;12.2;;;;;;;1.1;73.1;99960.0;;;;
2021/01/30 16:33:00;;;;;;;13.4;12.2;;;;;;;1.2;73.2;99970.0;;;;
2021/01/30 16:35:00;;;;;;;13.4;12.2;;;;;;;1.1;73.2;99970.0;;;;
2021/01/30 16:37:00;;;;;;;13.4;12.2;;;;;;;1.2;73.3;99980.0;;;;
2021/01/30 16:39:00;;;;;;;13.4;12.2;;;;;;;1.3;72.4;99980.0;;;;
2021/01/30 16:41:00;;;;;;;13.4;12.2;;;;;;;1.1;73.0;99980.0;;;;
2021/01/30 16:45:00;;;;;;;12.0;11.0;;;;;;;1.0;73.3;99980.0;;;;
2021/01/30 16:47:00;;;;;;;12.0;11.0;;;;;;;1.1;72.6;99980.0;;;;
2021/01/30 16:51:00;;;;;;;12.0;11.0;;;;;;;1.3;73.1;99990.0;;;;
2021/01/30 16:55:00;;;;;;;12.0;11.0;;;;;;;1.2;72.8;99990.0;;;;
2021/01/30 16:57:00;;;;;;;12.0;11.0;;;;;;;1.3;72.8;99990.0;;;;
2021/01/30 16:59:00;;;;;;;12.0;11.0;;;;;;;1.2;72.7;99990.0;;;;
2021/01/30 17:01:00;;;;;;;12.0;11.0;;;;;;;1.0;72.3;99990.0;;;;
2021/01/30 17:05:00;;;;;;;12.2;11.2;;;;;;;1.1;73.1;99990.0;;;;
2021/01/30 17:11:00;;;;;;;12.2;11.2;;;;;;;1.0;73.5;100000.0;;;;
2021/01/30 17:13:00;;;;;;;12.2;11.2;;;;;;;0.9;72.9;100010.0;;;;
2021/01/30 17:15:00;;;;;;;12.2;11.2;;;;;;;1.0;73.3;100010.0;;;;
2021/01/30 17:19:01;;;;;;;12.2;11.2;;;;;;;0.8;73.6;100010.0;;;;
2021/01/30 17:21:01;;;;;;;12.2;11.2;;;;;;;0.9;73.6;100020.0;;;;
2021/01/30 17:25:00;;;;;;;11.9;10.9;;;;;;;1.0;74.0;100030.0;;;;
2021/01/30 17:27:00;;;;;;;11.9;10.9;;;;;;;0.9;73.7;100030.0;;;;
2021/01/30 17:31:00;;;;;;;11.9;10.9;;;;;;;1.0;73.2;100040.0;;;;
2021/01/30 17:35:00;;;;;;;11.9;10.9;;;;;;;0.9;73.2;100040.0;;;;
2021/01/30 17:37:01;;;;;;;11.9;10.9;;;;;;;0.8;74.1;100040.0;;;;
2021/01/30 17:41:03;;;;;;;11.9;10.9;;;;;;;0.9;73.8;100040.0;;;;